Terminal Aerodrome Forecast
Issued by NWS Mt. Holly, NJ

Home | Current Version | Previous Version | Text Only | Print | Product List | Glossary On
Versions: 1 2 3 4 5 6 7 8 9 10 11 12 13 14 15 16 17 18 19 20 21 22 23 24 25 26 27 28 29 30 31 32 33 34 35 36 37 38 39 40 41 42 43 44 45 46
000
FTUS41 KPHI 200800 AAA
TAFABE
TAF AMD
KABE 200808Z 2008/2106 VRB02KT P6SM OVC025
      TEMPO 2010/2013 5SM BR OVC015
     FM201400 15006KT P6SM BKN020
     FM201600 18009KT P6SM SCT035
     FM210200 15005KT P6SM SCT020
     FM210400 VRB02KT 4SM BR BKN018=

USA.gov is the U.S. government's official web portal to all federal, state and local government web resources and services.